sensor_id;sensor_type;location;lat;lon;timestamp;pressure;altitude;pressure_sealevel;temperature;humidity
74329;BME280;62749;51.982;5.916;2022-09-09T15:41:49;100553.97;;;23.79;55.13
74329;BME280;62749;51.982;5.916;2022-09-09T15:44:19;100553.63;;;23.56;54.22
74329;BME280;62749;51.982;5.916;2022-09-09T15:46:52;100558.31;;;23.36;55.15
74329;BME280;62749;51.982;5.916;2022-09-09T15:49:25;100558.38;;;22.80;56.39
74329;BME280;62749;51.982;5.916;2022-09-09T15:51:57;100554.88;;;22.70;56.68
74329;BME280;62749;51.982;5.916;2022-09-09T15:54:32;100547.41;;;22.63;57.38
74329;BME280;62749;51.982;5.916;2022-09-09T15:57:11;100544.59;;;22.55;57.07
74329;BME280;62749;51.982;5.916;2022-09-09T15:59:42;100530.91;;;22.48;57.49
74329;BME280;62749;51.982;5.916;2022-09-09T16:02:12;100533.03;;;22.45;57.83
74329;BME280;62749;51.982;5.916;2022-09-09T16:04:41;100551.88;;;22.45;57.44
74329;BME280;62749;51.982;5.916;2022-09-09T16:07:11;100612.94;;;22.44;57.34
74329;BME280;62749;51.982;5.916;2022-09-09T16:09:41;100584.34;;;22.43;57.55
74329;BME280;62749;51.982;5.916;2022-09-09T16:12:14;100594.22;;;22.52;57.42
74329;BME280;62749;51.982;5.916;2022-09-09T16:14:44;100588.38;;;22.57;57.15
74329;BME280;62749;51.982;5.916;2022-09-09T16:17:13;100593.03;;;22.65;57.15
74329;BME280;62749;51.982;5.916;2022-09-09T16:19:45;100590.59;;;22.72;57.15
74329;BME280;62749;51.982;5.916;2022-09-09T16:22:15;100591.84;;;22.77;57.38
74329;BME280;62749;51.982;5.916;2022-09-09T16:27:54;100583.56;;;22.89;57.63
74329;BME280;62749;51.982;5.916;2022-09-09T16:30:24;100586.94;;;22.91;57.15
74329;BME280;62749;51.982;5.916;2022-09-09T16:32:53;100590.88;;;22.96;56.93
74329;BME280;62749;51.982;5.916;2022-09-09T16:35:23;100593.56;;;22.96;57.08
74329;BME280;62749;51.982;5.916;2022-09-09T16:37:53;100592.56;;;22.97;57.32
74329;BME280;62749;51.982;5.916;2022-09-09T16:40:23;100591.50;;;22.90;57.49
74329;BME280;62749;51.982;5.916;2022-09-09T16:42:56;100596.88;;;22.90;58.50
74329;BME280;62749;51.982;5.916;2022-09-09T16:45:26;100601.28;;;22.91;57.22
74329;BME280;62749;51.982;5.916;2022-09-09T16:47:55;100599.38;;;23.02;56.93
74329;BME280;62749;51.982;5.916;2022-09-09T16:50:25;100606.88;;;22.98;56.81
74329;BME280;62749;51.982;5.916;2022-09-09T16:52:55;100603.97;;;22.91;57.56
74329;BME280;62749;51.982;5.916;2022-09-09T16:55:25;100610.03;;;22.93;57.26
74329;BME280;62749;51.982;5.916;2022-09-09T16:57:59;100608.19;;;22.94;57.00
74329;BME280;62749;51.982;5.916;2022-09-09T17:00:28;100611.03;;;22.92;57.14
74329;BME280;62749;51.982;5.916;2022-09-09T17:02:58;100615.41;;;22.93;56.60
74329;BME280;62749;51.982;5.916;2022-09-09T17:05:28;100618.72;;;22.87;57.63
74329;BME280;62749;51.982;5.916;2022-09-09T17:07:59;100622.41;;;22.86;57.19
74329;BME280;62749;51.982;5.916;2022-09-09T17:10:29;100616.88;;;22.88;57.19
74329;BME280;62749;51.982;5.916;2022-09-09T17:13:01;100617.47;;;22.81;57.34
74329;BME280;62749;51.982;5.916;2022-09-09T17:15:42;100619.91;;;22.75;57.23
74329;BME280;62749;51.982;5.916;2022-09-09T17:18:12;100621.19;;;22.71;57.68
74329;BME280;62749;51.982;5.916;2022-09-09T17:20:43;100608.59;;;22.71;57.78
74329;BME280;62749;51.982;5.916;2022-09-09T17:23:13;100609.28;;;22.73;57.85
74329;BME280;62749;51.982;5.916;2022-09-09T17:25:43;100616.34;;;22.74;57.72
74329;BME280;62749;51.982;5.916;2022-09-09T17:28:16;100619.91;;;22.75;57.62
74329;BME280;62749;51.982;5.916;2022-09-09T17:30:52;100619.41;;;22.61;57.70
74329;BME280;62749;51.982;5.916;2022-09-09T17:36:29;100624.66;;;22.53;58.23
74329;BME280;62749;51.982;5.916;2022-09-09T17:39:04;100635.94;;;22.66;58.06
74329;BME280;62749;51.982;5.916;2022-09-09T17:41:36;100629.53;;;22.77;57.71
74329;BME280;62749;51.982;5.916;2022-09-09T17:44:09;100632.47;;;22.84;58.11
74329;BME280;62749;51.982;5.916;2022-09-09T17:46:41;100634.25;;;22.93;57.87
74329;BME280;62749;51.982;5.916;2022-09-09T17:49:15;100638.66;;;22.94;58.41
74329;BME280;62749;51.982;5.916;2022-09-09T17:51:46;100637.53;;;22.97;57.38
74329;BME280;62749;51.982;5.916;2022-09-09T17:54:19;100643.41;;;22.82;57.90
74329;BME280;62749;51.982;5.916;2022-09-09T17:56:49;100644.84;;;22.77;58.23
74329;BME280;62749;51.982;5.916;2022-09-09T17:59:21;100651.78;;;22.79;58.05
74329;BME280;62749;51.982;5.916;2022-09-09T18:01:51;100649.63;;;22.83;57.47
74329;BME280;62749;51.982;5.916;2022-09-09T18:04:21;100648.22;;;22.79;58.28
74329;BME280;62749;51.982;5.916;2022-09-09T18:06:52;100660.75;;;22.70;57.95
74329;BME280;62749;51.982;5.916;2022-09-09T18:09:28;100658.44;;;22.75;57.53
74329;BME280;62749;51.982;5.916;2022-09-09T18:11:58;100667.22;;;22.77;58.00
74329;BME280;62749;51.982;5.916;2022-09-09T18:14:31;100667.19;;;22.87;57.68
74329;BME280;62749;51.982;5.916;2022-09-09T18:17:03;100673.03;;;22.82;57.82
74329;BME280;62749;51.982;5.916;2022-09-09T18:19:34;100666.97;;;22.61;58.35
74329;BME280;62749;51.982;5.916;2022-09-09T18:22:05;100670.41;;;22.53;58.37
74329;BME280;62749;51.982;5.916;2022-09-09T18:24:35;100673.97;;;22.53;58.43
74329;BME280;62749;51.982;5.916;2022-09-09T18:27:06;100678.78;;;22.50;58.28
74329;BME280;62749;51.982;5.916;2022-09-09T18:29:39;100673.69;;;22.47;58.61
74329;BME280;62749;51.982;5.916;2022-09-09T18:32:09;100675.84;;;22.43;58.30
74329;BME280;62749;51.982;5.916;2022-09-09T18:34:40;100675.84;;;22.43;58.69
74329;BME280;62749;51.982;5.916;2022-09-09T18:37:10;100680.63;;;22.40;58.62
74329;BME280;62749;51.982;5.916;2022-09-09T18:39:40;100680.63;;;22.40;58.40
74329;BME280;62749;51.982;5.916;2022-09-09T18:42:10;100690.81;;;22.36;58.88
74329;BME280;62749;51.982;5.916;2022-09-09T18:44:59;100693.66;;;22.34;58.53
74329;BME280;62749;51.982;5.916;2022-09-09T18:47:28;100703.56;;;22.34;58.51
74329;BME280;62749;51.982;5.916;2022-09-09T18:49:58;100700.03;;;22.33;58.91
74329;BME280;62749;51.982;5.916;2022-09-09T18:52:28;100694.94;;;22.30;58.98
74329;BME280;62749;51.982;5.916;2022-09-09T18:54:58;100695.09;;;22.29;59.05
74329;BME280;62749;51.982;5.916;2022-09-09T18:57:27;100700.31;;;22.30;59.00
74329;BME280;62749;51.982;5.916;2022-09-09T19:00:00;100699.31;;;22.31;58.66
74329;BME280;62749;51.982;5.916;2022-09-09T19:05:38;100708.69;;;22.47;58.61
74329;BME280;62749;51.982;5.916;2022-09-09T19:08:08;100716.47;;;22.50;58.33
74329;BME280;62749;51.982;5.916;2022-09-09T19:10:37;100709.94;;;22.52;57.76
74329;BME280;62749;51.982;5.916;2022-09-09T19:13:07;100714.78;;;22.49;57.93
74329;BME280;62749;51.982;5.916;2022-09-09T19:15:40;100717.59;;;22.37;58.35
74329;BME280;62749;51.982;5.916;2022-09-09T19:18:10;100723.28;;;22.44;58.24
74329;BME280;62749;51.982;5.916;2022-09-09T19:20:39;100725.25;;;22.42;58.32
74329;BME280;62749;51.982;5.916;2022-09-09T19:23:34;100721.28;;;22.36;58.69
74329;BME280;62749;51.982;5.916;2022-09-09T19:26:04;100724.94;;;22.35;58.86
74329;BME280;62749;51.982;5.916;2022-09-09T19:28:35;100725.38;;;22.31;58.62
74329;BME280;62749;51.982;5.916;2022-09-09T19:31:09;100735.56;;;22.27;58.63
74329;BME280;62749;51.982;5.916;2022-09-09T19:33:41;100737.25;;;22.28;58.85
74329;BME280;62749;51.982;5.916;2022-09-09T19:36:15;100743.81;;;22.45;58.14
74329;BME280;62749;51.982;5.916;2022-09-09T19:38:47;100744.38;;;22.59;58.15
74329;BME280;62749;51.982;5.916;2022-09-09T19:41:19;100735.84;;;22.63;57.82
74329;BME280;62749;51.982;5.916;2022-09-09T19:43:51;100741.94;;;22.65;58.07
74329;BME280;62749;51.982;5.916;2022-09-09T19:46:31;100741.63;;;22.68;57.60
74329;BME280;62749;51.982;5.916;2022-09-09T19:49:03;100743.22;;;22.71;57.54
74329;BME280;62749;51.982;5.916;2022-09-09T19:51:35;100739.81;;;22.69;57.54
74329;BME280;62749;51.982;5.916;2022-09-09T19:54:06;100739.75;;;22.79;57.68
74329;BME280;62749;51.982;5.916;2022-09-09T19:56:39;100748.72;;;22.79;57.27
74329;BME280;62749;51.982;5.916;2022-09-09T19:59:11;100743.16;;;22.81;57.38
74329;BME280;62749;51.982;5.916;2022-09-09T20:01:44;100748.81;;;22.88;56.93
74329;BME280;62749;51.982;5.916;2022-09-09T20:04:14;100752.38;;;22.78;56.96
74329;BME280;62749;51.982;5.916;2022-09-09T20:06:44;100755.50;;;22.83;57.28
74329;BME280;62749;51.982;5.916;2022-09-09T20:09:37;100759.03;;;22.84;57.59
74329;BME280;62749;51.982;5.916;2022-09-09T20:12:07;100758.59;;;22.79;57.06
74329;BME280;62749;51.982;5.916;2022-09-09T20:14:37;100757.63;;;22.80;57.25
74329;BME280;62749;51.982;5.916;2022-09-09T20:17:09;100753.22;;;22.79;57.47
74329;BME280;62749;51.982;5.916;2022-09-09T20:19:40;100756.06;;;22.77;57.33
74329;BME280;62749;51.982;5.916;2022-09-09T20:22:10;100763.19;;;22.68;57.43
74329;BME280;62749;51.982;5.916;2022-09-09T20:44:02;100758.22;;;22.34;58.68
74329;BME280;62749;51.982;5.916;2022-09-09T20:46:35;100758.94;;;22.36;58.55
74329;BME280;62749;51.982;5.916;2022-09-09T20:49:09;100765.03;;;22.38;58.08
